Time;durP1;ratioP1;P1;durP2;ratioP2;P2;SDS_P1;SDS_P2;PMS_P1;PMS_P2;Temp;Humidity;BMP_temperature;BMP_pressure;BME280_temperature;BME280_humidity;BME280_pressure;Samples;Min_cycle;Max_cycle;Signal;HPM_P1;HPM_P2
2022/12/13 00:01:53;;;;;;;18.20;10.43;;;;;;;-2.30;88.10;100133.37;1698626;83;21077;-71
2022/12/13 00:04:23;;;;;;;15.53;10.17;;;;;;;-2.31;88.00;100135.91;1699006;83;21045;-71
2022/12/13 00:06:52;;;;;;;16.60;10.07;;;;;;;-2.33;87.93;100131.16;1698733;83;21518;-72
2022/12/13 00:09:20;;;;;;;15.87;9.60;;;;;;;-2.34;87.90;100139.72;1699001;83;20941;-73
2022/12/13 00:11:48;;;;;;;15.03;9.27;;;;;;;-2.37;87.91;100135.84;1698588;83;21037;-71
2022/12/13 00:14:16;;;;;;;17.47;9.50;;;;;;;-2.36;87.96;100134.98;1698998;83;21081;-72
2022/12/13 00:16:48;;;;;;;15.73;10.17;;;;;;;-2.35;87.93;100139.30;1698662;83;21503;-72
2022/12/13 00:19:17;;;;;;;14.30;8.63;;;;;;;-2.33;88.04;100133.73;1698995;83;21117;-72
2022/12/13 00:21:45;;;;;;;14.67;9.10;;;;;;;-2.34;87.88;100140.58;1698639;83;21081;-72
2022/12/13 00:24:12;;;;;;;14.23;8.53;;;;;;;-2.35;87.82;100137.58;1699019;83;21018;-73
2022/12/13 00:26:39;;;;;;;14.67;8.80;;;;;;;-2.35;87.82;100132.88;1698740;83;21045;-72
2022/12/13 00:29:07;;;;;;;14.13;7.47;;;;;;;-2.37;87.66;100128.14;1698975;84;21105;-73
2022/12/13 00:31:35;;;;;;;11.63;7.33;;;;;;;-2.39;87.55;100131.11;1698668;83;21140;-72
2022/12/13 00:34:02;;;;;;;14.10;7.77;;;;;;;-2.43;87.42;100132.78;1699007;83;21543;-72
2022/12/13 00:36:29;;;;;;;16.83;8.97;;;;;;;-2.47;87.39;100135.75;1699575;83;21489;-72
2022/12/13 00:38:59;;;;;;;15.40;8.97;;;;;;;-2.47;87.48;100135.75;1699275;83;21368;-72
2022/12/13 00:41:30;;;;;;;18.67;9.88;;;;;;;-2.49;87.37;100141.28;1699769;83;21029;-72
2022/12/13 00:43:57;;;;;;;13.80;8.30;;;;;;;-2.50;87.39;100136.97;1699217;83;21255;-72
2022/12/13 00:46:26;;;;;;;12.33;7.60;;;;;;;-2.49;87.34;100141.28;1699368;83;21033;-72
2022/12/13 00:48:56;;;;;;;11.83;7.07;;;;;;;-2.50;87.29;100141.25;1699178;84;21017;-72
2022/12/13 00:51:24;;;;;;;14.58;8.20;;;;;;;-2.51;87.34;100140.39;1699568;83;21010;-81
2022/12/13 00:53:51;;;;;;;17.40;8.50;;;;;;;-2.50;87.23;100145.95;1699225;84;21021;-72
2022/12/13 00:56:24;;;;;;;13.47;7.13;;;;;;;-2.52;87.20;100142.95;1699770;83;21897;-72
2022/12/13 00:58:53;;;;;;;12.63;7.60;;;;;;;-2.54;87.10;100149.34;1699305;84;21011;-72
2022/12/13 01:01:27;;;;;;;13.40;8.20;;;;;;;-2.57;87.01;100147.17;1699435;84;21081;-72
2022/12/13 01:03:57;;;;;;;13.70;8.10;;;;;;;-2.63;86.92;100151.80;1699291;83;21042;-72
2022/12/13 01:06:37;;;;;;;19.37;9.50;;;;;;;-2.69;86.93;100146.57;1699479;84;21531;-72
2022/12/13 01:09:02;;;;;;;16.37;7.47;;;;;;;-2.72;86.88;100147.81;1693501;84;21174;-72
2022/12/13 01:11:30;;;;;;;13.63;7.17;;;;;;;-2.76;86.84;100151.20;1699406;83;21043;-72
2022/12/13 01:13:57;;;;;;;15.13;8.20;;;;;;;-2.80;86.82;100149.03;1699294;83;21084;-72
2022/12/13 01:16:24;;;;;;;15.20;8.00;;;;;;;-2.85;86.76;100149.37;1699644;83;21038;-73
2022/12/13 01:18:51;;;;;;;14.50;7.93;;;;;;;-2.88;86.72;100154.87;1699273;83;21014;-72
2022/12/13 01:21:19;;;;;;;16.17;7.83;;;;;;;-2.92;86.85;100150.13;1699500;84;21209;-72
2022/12/13 01:23:47;;;;;;;13.40;7.63;;;;;;;-2.94;86.87;100147.56;1699308;83;21042;-72
2022/12/13 01:26:19;;;;;;;17.43;8.67;;;;;;;-2.94;86.95;100148.84;1699816;83;21484;-72
2022/12/13 01:28:47;;;;;;;16.63;8.47;;;;;;;-2.92;87.08;100154.83;1699195;83;21010;-72
2022/12/13 01:31:19;;;;;;;14.77;8.77;;;;;;;-2.88;87.18;100158.72;1699508;84;21471;-81
2022/12/13 01:33:47;;;;;;;14.23;7.83;;;;;;;-2.86;87.23;100156.61;1699184;83;21172;-72
2022/12/13 01:36:18;;;;;;;12.83;7.70;;;;;;;-2.84;87.30;100151.09;1699121;83;21531;-72
2022/12/13 01:38:45;;;;;;;13.40;8.13;;;;;;;-2.82;87.24;100157.11;1699247;83;20986;-72
2022/12/13 01:41:19;;;;;;;13.30;7.87;;;;;;;-2.80;87.19;100145.57;1699245;84;21025;-72
2022/12/13 01:43:51;;;;;;;12.33;7.60;;;;;;;-2.79;87.17;100155.87;1699349;83;21435;-72
2022/12/13 01:46:20;;;;;;;12.50;6.77;;;;;;;-2.78;87.14;100155.02;1699253;83;21179;-72
2022/12/13 01:49:02;;;;;;;11.23;6.60;;;;;;;-2.76;87.04;100154.63;1699108;83;21604;-72
2022/12/13 01:51:41;;;;;;;10.67;5.87;;;;;;;-2.77;86.95;100154.19;1699184;83;21048;-72
2022/12/13 01:54:12;;;;;;;8.67;5.87;;;;;;;-2.77;86.82;100150.34;1699125;83;21030;-72
2022/12/13 01:56:50;;;;;;;11.37;5.87;;;;;;;-2.78;86.76;100149.88;1699219;83;21365;-72
2022/12/13 01:59:18;;;;;;;10.70;5.70;;;;;;;-2.76;86.72;100154.63;1699669;83;21169;-72
2022/12/13 02:01:49;;;;;;;9.95;5.85;;;;;;;-2.77;86.54;100158.44;1693748;84;20986;-72
2022/12/13 02:04:28;;;;;;;8.25;5.00;;;;;;;-2.76;86.56;100159.75;1699529;83;21037;-72
2022/12/13 02:06:56;;;;;;;8.90;4.80;;;;;;;-2.74;86.57;100160.64;1699039;83;21014;-72
2022/12/13 02:09:25;;;;;;;8.40;5.03;;;;;;;-2.73;86.46;100159.78;1699505;83;21184;-72
2022/12/13 02:11:53;;;;;;;6.70;4.23;;;;;;;-2.70;86.42;100165.38;1699149;83;21152;-72
2022/12/13 02:14:20;;;;;;;7.17;4.20;;;;;;;-2.68;86.30;100164.98;1699356;83;21090;-72
2022/12/13 02:16:58;;;;;;;7.73;4.10;;;;;;;-2.69;86.20;100158.11;1699282;83;21053;-72
2022/12/13 02:19:49;;;;;;;6.80;4.23;;;;;;;-2.67;86.10;100159.00;1699097;83;21058;-72
2022/12/13 02:22:50;;;;;;;5.90;3.97;;;;;;;-2.66;85.99;100151.77;1699214;83;21359;-72
2022/12/13 02:25:56;;;;;;;7.37;4.22;;;;;;;-2.66;85.88;100150.48;1682220;84;21114;-72
2022/12/13 02:28:48;;;;;;;5.97;4.00;;;;;;;-2.61;85.98;100155.66;1686714;84;21054;-74
2022/12/13 02:31:25;;;;;;;7.87;4.13;;;;;;;-2.58;85.98;100161.67;1699510;83;21018;-72
2022/12/13 02:34:10;;;;;;;8.83;4.57;;;;;;;-2.60;85.69;100153.55;1698344;84;21455;-72
2022/12/13 02:37:07;;;;;;;5.80;3.50;;;;;;;-2.63;85.56;100151.80;1696769;83;21057;-73
2022/12/13 02:39:39;;;;;;;7.10;4.53;;;;;;;-2.63;85.54;100149.63;1698802;83;21965;-72
2022/12/13 02:42:29;;;;;;;7.40;4.30;;;;;;;-2.62;85.59;100143.25;1698622;84;21527;-73
2022/12/13 02:45:08;;;;;;;5.97;3.50;;;;;;;-2.60;85.57;100145.84;1681075;84;21029;-73
2022/12/13 02:47:42;;;;;;;5.63;3.80;;;;;;;-2.62;85.29;100144.53;1698710;83;21001;-73
2022/12/13 02:50:11;;;;;;;6.33;4.07;;;;;;;-2.62;85.13;100148.81;1698691;83;21319;-72
2022/12/13 02:52:41;;;;;;;5.60;3.45;;;;;;;-2.60;85.18;100144.56;1698768;83;21134;-72
2022/12/13 02:55:13;;;;;;;8.13;3.80;;;;;;;-2.57;85.03;100142.89;1698947;83;27141;-72
2022/12/13 02:57:44;;;;;;;22.50;9.83;;;;;;;-2.58;84.80;100142.43;1698694;83;21009;-73
2022/12/13 03:00:22;;;;;;;15.37;6.63;;;;;;;-2.58;84.74;100142.43;1698684;83;21010;-72
2022/12/13 03:03:12;;;;;;;6.50;4.03;;;;;;;-2.57;84.67;100138.19;1698694;84;21018;-72
2022/12/13 03:09:15;;;;;;;5.57;3.50;;;;;;;-2.58;84.34;100141.14;1674622;83;21570;-72
2022/12/13 03:15:04;;;;;;;6.33;3.92;;;;;;;-2.62;84.23;100136.84;1698945;83;21013;-72
2022/12/13 03:17:36;;;;;;;5.40;3.80;;;;;;;-2.59;84.13;100141.14;1698922;83;21053;-72
2022/12/13 03:20:06;;;;;;;7.63;4.33;;;;;;;-2.61;84.12;100139.83;1697509;83;21566;-72
2022/12/13 03:22:34;;;;;;;7.67;4.47;;;;;;;-2.57;84.05;100138.19;1675139;84;21023;-72
2022/12/13 03:25:01;;;;;;;9.57;5.07;;;;;;;-2.54;84.17;100142.06;1698680;83;21044;-72
2022/12/13 03:27:29;;;;;;;8.23;4.87;;;;;;;-2.53;84.11;100140.78;1698962;83;21037;-72
2022/12/13 03:29:58;;;;;;;8.97;5.00;;;;;;;-2.54;84.05;100141.64;1674778;84;21029;-72
2022/12/13 03:32:25;;;;;;;11.37;5.60;;;;;;;-2.54;83.95;100133.94;1698575;83;21149;-72
2022/12/13 03:34:53;;;;;;;7.27;4.90;;;;;;;-2.55;83.90;100138.64;1699075;83;20918;-73
2022/12/13 03:37:20;;;;;;;6.83;4.50;;;;;;;-2.55;83.87;100134.80;1699322;83;21449;-74
2022/12/13 03:39:47;;;;;;;9.40;4.90;;;;;;;-2.54;83.93;100130.09;1699601;83;21477;-72
2022/12/13 03:42:15;;;;;;;9.03;4.90;;;;;;;-2.56;83.85;100133.48;1699325;84;21508;-73
2022/12/13 03:44:42;;;;;;;9.43;4.87;;;;;;;-2.54;83.89;100129.23;1699556;83;21287;-72
2022/12/13 03:47:09;;;;;;;8.80;5.17;;;;;;;-2.56;83.84;100134.34;1698653;83;21010;-73
2022/12/13 03:49:36;;;;;;;9.27;5.70;;;;;;;-2.57;83.82;100130.06;1697633;84;21057;-73
2022/12/13 03:52:03;;;;;;;9.47;6.13;;;;;;;-2.57;83.88;100131.34;1698109;84;21042;-72
2022/12/13 03:54:30;;;;;;;9.93;5.60;;;;;;;-2.55;84.04;100127.49;1698980;84;21010;-73
2022/12/13 03:56:58;;;;;;;8.90;5.87;;;;;;;-2.55;83.97;100127.09;1698305;84;21222;-73
2022/12/13 03:59:26;;;;;;;9.90;6.37;;;;;;;-2.57;83.74;100138.19;1699225;84;21021;-73
2022/12/13 04:01:53;;;;;;;9.97;6.13;;;;;;;-2.60;83.73;100133.88;1699287;84;21054;-73
2022/12/13 04:04:20;;;;;;;11.10;6.17;;;;;;;-2.61;83.68;100142.39;1699385;84;21033;-73
2022/12/13 04:06:47;;;;;;;9.70;5.77;;;;;;;-2.60;83.68;100135.59;1698408;84;21522;-74
2022/12/13 04:09:14;;;;;;;11.20;6.57;;;;;;;-2.62;83.57;100147.53;1699561;84;21084;-73
2022/12/13 04:14:27;;;;;;;11.37;6.90;;;;;;;-2.63;83.62;100136.41;1699614;84;20994;-72
2022/12/13 04:16:54;;;;;;;11.07;6.53;;;;;;;-2.63;83.58;100142.82;1699228;84;21022;-74
2022/12/13 04:19:21;;;;;;;10.57;5.77;;;;;;;-2.62;83.68;100139.83;1699669;84;20998;-73
2022/12/13 04:21:48;;;;;;;14.90;9.53;;;;;;;-2.64;83.38;100132.52;1698971;84;21992;-73
2022/12/13 04:24:16;;;;;;;10.57;6.33;;;;;;;-2.64;83.37;100135.95;1698923;84;21048;-73
2022/12/13 04:26:43;;;;;;;11.07;6.17;;;;;;;-2.64;83.38;100133.81;1699400;84;21440;-73
2022/12/13 04:29:11;;;;;;;14.13;7.27;;;;;;;-2.61;83.52;100144.11;1699528;84;21034;-73
2022/12/13 04:31:39;;;;;;;21.00;12.83;;;;;;;-2.62;83.51;100136.84;1699132;84;21514;-73
2022/12/13 04:34:06;;;;;;;21.30;10.63;;;;;;;-2.61;83.57;100136.41;1698105;84;21127;-73
2022/12/13 04:36:33;;;;;;;18.53;9.90;;;;;;;-2.63;83.55;100136.80;1697506;84;21515;-73
2022/12/13 04:39:01;;;;;;;14.67;9.00;;;;;;;-2.63;83.65;100142.82;1697601;84;21029;-73
2022/12/13 04:41:29;;;;;;;12.63;7.97;;;;;;;-2.65;83.65;100139.37;1697476;84;21049;-73
2022/12/13 04:43:56;;;;;;;13.63;8.00;;;;;;;-2.68;83.55;100146.17;1677790;84;21040;-73
2022/12/13 04:46:23;;;;;;;12.00;6.90;;;;;;;-2.68;83.67;100141.90;1697458;84;21495;-73
2022/12/13 04:48:50;;;;;;;12.97;7.70;;;;;;;-2.67;83.58;100135.05;1697660;84;21041;-73
2022/12/13 04:51:17;;;;;;;13.53;7.60;;;;;;;-2.64;83.58;100144.92;1696809;84;21018;-73
2022/12/13 04:53:44;;;;;;;14.33;7.77;;;;;;;-2.65;83.46;100133.38;1697510;84;21030;-73
2022/12/13 04:56:11;;;;;;;14.23;7.27;;;;;;;-2.63;83.47;100135.52;1696971;84;21327;-73
2022/12/13 04:58:38;;;;;;;12.57;7.37;;;;;;;-2.63;83.25;100140.26;1697259;84;21131;-73
2022/12/13 05:01:07;;;;;;;12.27;7.80;;;;;;;-2.63;83.24;100141.94;1697431;84;21037;-72
2022/12/13 05:03:35;;;;;;;12.13;7.70;;;;;;;-2.62;83.41;100139.41;1697704;84;21049;-72
2022/12/13 05:06:12;;;;;;;15.60;10.27;;;;;;;-2.59;83.62;100143.28;1697483;84;21080;-73
2022/12/13 05:08:40;;;;;;;21.50;9.03;;;;;;;-2.60;83.68;100144.14;1697790;84;21306;-73
2022/12/13 05:11:09;;;;;;;24.30;11.37;;;;;;;-2.62;83.85;100148.81;1697397;84;21142;-73
2022/12/13 05:13:37;;;;;;;13.83;7.43;;;;;;;-2.65;84.17;100148.78;1697750;84;21466;-74
2022/12/13 05:16:07;;;;;;;26.17;10.97;;;;;;;-2.68;84.39;100148.31;1697406;84;21089;-73
2022/12/13 05:18:36;;;;;;;19.23;9.80;;;;;;;-2.75;84.54;100147.35;1697862;84;21006;-73
2022/12/13 05:21:06;;;;;;;37.70;13.97;;;;;;;-2.75;84.87;100146.07;1697440;84;21061;-72
2022/12/13 05:23:33;;;;;;;14.83;7.90;;;;;;;-2.75;85.03;100139.66;1697585;84;21587;-73
2022/12/13 05:26:00;;;;;;;14.43;8.03;;;;;;;-2.74;85.12;100136.27;1697414;84;21112;-72
2022/12/13 05:28:29;;;;;;;13.33;7.10;;;;;;;-2.75;84.79;100133.67;1697720;84;21580;-73
2022/12/13 05:31:00;;;;;;;11.43;6.67;;;;;;;-2.75;84.73;100142.66;1697544;84;21104;-73
2022/12/13 05:33:27;;;;;;;12.87;7.87;;;;;;;-2.76;84.46;100134.53;1696682;84;21002;-73
2022/12/13 05:35:54;;;;;;;10.43;6.83;;;;;;;-2.77;84.31;100138.80;1698357;84;21505;-73
2022/12/13 05:38:21;;;;;;;11.93;6.90;;;;;;;-2.77;84.19;100150.34;1698810;84;20930;-81
2022/12/13 05:40:48;;;;;;;11.47;6.73;;;;;;;-2.77;84.07;100140.08;1698829;84;21089;-73
2022/12/13 05:43:15;;;;;;;13.33;6.93;;;;;;;-2.80;83.82;100146.86;1698576;84;20998;-73
2022/12/13 05:45:42;;;;;;;10.73;5.70;;;;;;;-2.78;83.95;100152.87;1697982;84;21040;-73
2022/12/13 05:48:09;;;;;;;12.73;7.00;;;;;;;-2.78;83.67;100147.31;1698737;84;21186;-73
2022/12/13 05:50:37;;;;;;;11.70;6.97;;;;;;;-2.79;83.51;100149.88;1698649;84;21021;-73
2022/12/13 05:53:05;;;;;;;11.07;6.47;;;;;;;-2.79;83.56;100143.05;1698689;84;21037;-73
2022/12/13 05:55:33;;;;;;;11.90;6.50;;;;;;;-2.80;83.34;100143.01;1698541;84;21038;-73
2022/12/13 05:58:00;;;;;;;10.60;6.63;;;;;;;-2.82;83.25;100137.88;1697876;84;21021;-73
2022/12/13 06:00:27;;;;;;;9.20;5.90;;;;;;;-2.81;83.23;100139.59;1698635;84;21511;-73
2022/12/13 06:02:54;;;;;;;11.67;6.83;;;;;;;-2.81;83.13;100142.16;1698766;84;21033;-73
2022/12/13 06:05:21;;;;;;;11.50;7.17;;;;;;;-2.80;83.12;100145.57;1698708;84;21464;-74
2022/12/13 06:07:48;;;;;;;11.00;6.30;;;;;;;-2.79;83.01;100155.87;1698615;84;21041;-73
2022/12/13 06:10:17;;;;;;;12.03;6.83;;;;;;;-2.79;82.99;100149.88;1699006;84;21428;-74
2022/12/13 06:12:45;;;;;;;11.30;7.13;;;;;;;-2.77;82.82;100150.34;1698957;84;21199;-73
2022/12/13 06:15:12;;;;;;;13.87;8.70;;;;;;;-2.76;82.66;100147.35;1698933;84;21851;-73
2022/12/13 06:17:39;;;;;;;11.80;7.67;;;;;;;-2.74;82.67;100146.53;1698735;84;21456;-73
2022/12/13 06:20:10;;;;;;;9.50;6.60;;;;;;;-2.70;82.66;100151.27;1698337;84;21042;-73
2022/12/13 06:22:37;;;;;;;10.33;6.00;;;;;;;-2.70;82.49;100149.98;1698282;84;21010;-73
2022/12/13 06:25:04;;;;;;;12.07;6.53;;;;;;;-2.71;82.52;100144.00;1698927;84;21519;-74
2022/12/13 06:27:31;;;;;;;8.93;5.50;;;;;;;-2.70;82.47;100148.28;1698761;84;20989;-73
2022/12/13 06:29:58;;;;;;;9.87;5.63;;;;;;;-2.70;82.48;100148.70;1698858;84;21515;-74
2022/12/13 06:32:25;;;;;;;8.00;4.67;;;;;;;-2.71;82.39;100153.41;1698768;84;21026;-72
2022/12/13 06:34:52;;;;;;;10.60;6.13;;;;;;;-2.70;82.52;100156.41;1698409;84;21500;-73
2022/12/13 06:37:20;;;;;;;9.50;5.50;;;;;;;-2.71;82.48;100160.67;1697336;84;22145;-73
2022/12/13 06:39:48;;;;;;;10.03;5.27;;;;;;;-2.71;82.41;100159.39;1697678;84;21018;-73
2022/12/13 06:42:18;;;;;;;8.23;5.37;;;;;;;-2.70;82.43;100160.25;1697503;84;21034;-73
2022/12/13 06:44:45;;;;;;;8.77;5.27;;;;;;;-2.71;82.44;100159.82;1697564;84;21002;-73
2022/12/13 06:47:12;;;;;;;10.30;5.40;;;;;;;-2.70;82.52;100167.52;1696791;84;21486;-73
2022/12/13 06:49:42;;;;;;;11.50;5.93;;;;;;;-2.70;82.49;100170.52;1697359;84;21174;-73
2022/12/13 06:52:13;;;;;;;8.63;5.27;;;;;;;-2.71;82.45;100159.39;1697451;84;21022;-72
2022/12/13 06:54:42;;;;;;;9.40;5.90;;;;;;;-2.70;82.49;100169.23;1697370;84;21034;-73
2022/12/13 06:57:12;;;;;;;9.70;5.70;;;;;;;-2.70;82.47;100164.95;1696357;84;21464;-73
2022/12/13 06:59:39;;;;;;;9.60;5.92;;;;;;;-2.71;82.50;100169.66;1697632;84;21026;-73
2022/12/13 07:02:07;;;;;;;9.13;5.37;;;;;;;-2.71;82.58;100170.94;1697373;84;21404;-72
2022/12/13 07:04:34;;;;;;;10.70;5.40;;;;;;;-2.71;82.44;100176.07;1697224;84;21475;-72
2022/12/13 07:07:01;;;;;;;10.57;5.60;;;;;;;-2.68;82.54;100180.38;1696829;84;21049;-74
2022/12/13 07:09:30;;;;;;;9.10;5.73;;;;;;;-2.65;82.58;100178.28;1697659;84;20903;-73
2022/12/13 07:11:57;;;;;;;11.27;6.20;;;;;;;-2.63;82.54;100175.28;1697558;84;21002;-73
2022/12/13 07:14:25;;;;;;;10.03;6.27;;;;;;;-2.61;82.62;100183.45;1697507;84;21957;-73
2022/12/13 07:16:52;;;;;;;12.30;6.03;;;;;;;-2.60;82.68;100184.34;1696674;84;21551;-73
2022/12/13 07:19:20;;;;;;;11.93;6.37;;;;;;;-2.63;82.69;100179.14;1697828;84;21093;-73
2022/12/13 07:21:47;;;;;;;10.47;6.57;;;;;;;-2.60;82.80;100180.48;1697490;84;21492;-73
2022/12/13 07:24:14;;;;;;;12.57;7.37;;;;;;;-2.61;82.84;100189.01;1697783;84;21041;-76
2022/12/13 07:26:41;;;;;;;12.33;7.43;;;;;;;-2.60;82.90;100189.05;1695229;83;21092;-72
2022/12/13 07:29:08;;;;;;;11.00;7.10;;;;;;;-2.60;82.96;100191.61;1695365;83;21610;-71
2022/12/13 07:31:36;;;;;;;13.23;7.57;;;;;;;-2.58;83.02;100188.61;1695360;83;21025;-73
2022/12/13 07:34:03;;;;;;;10.90;6.57;;;;;;;-2.57;83.16;100189.50;1695415;83;21037;-77
2022/12/13 07:36:30;;;;;;;14.53;7.47;;;;;;;-2.56;83.19;100186.94;1695284;83;21477;-73
2022/12/13 07:38:57;;;;;;;12.67;7.57;;;;;;;-2.54;83.19;100195.95;1695409;83;22062;-73
2022/12/13 07:41:26;;;;;;;11.63;7.20;;;;;;;-2.53;83.15;100195.95;1695058;83;20954;-78
2022/12/13 07:43:55;;;;;;;13.37;7.27;;;;;;;-2.53;83.20;100191.25;1695560;83;21052;-73
2022/12/13 07:46:23;;;;;;;14.50;8.17;;;;;;;-2.52;83.21;100194.28;1695164;83;21464;-78
2022/12/13 07:48:50;;;;;;;13.80;7.20;;;;;;;-2.51;83.05;100210.10;1694820;83;21029;-72
2022/12/13 07:51:18;;;;;;;12.33;7.93;;;;;;;-2.51;83.00;100204.97;1695295;83;21658;-72
2022/12/13 07:53:45;;;;;;;13.07;7.13;;;;;;;-2.49;83.13;100205.44;1695291;83;21037;-72
2022/12/13 07:56:13;;;;;;;15.87;8.60;;;;;;;-2.49;82.98;100205.44;1695037;83;21042;-73
2022/12/13 07:58:42;;;;;;;12.57;7.33;;;;;;;-2.48;83.05;100208.86;1696913;83;21447;-72
2022/12/13 08:01:10;;;;;;;15.58;7.62;;;;;;;-2.50;82.91;100198.56;1697849;83;21045;-72
2022/12/13 08:03:38;;;;;;;14.07;7.97;;;;;;;-2.53;82.91;100203.66;1701607;83;21174;-71
2022/12/13 08:06:09;;;;;;;13.37;7.53;;;;;;;-2.52;82.93;100205.83;1707531;83;20946;-71
2022/12/13 08:08:37;;;;;;;12.13;7.60;;;;;;;-2.53;82.90;100204.08;1705988;83;21026;-71
2022/12/13 08:11:08;;;;;;;12.50;7.60;;;;;;;-2.52;82.98;100204.55;1706593;83;21491;-71
2022/12/13 08:13:35;;;;;;;;;;;;;;;-2.53;82.98;100208.78;1704362;83;21539;-71
2022/12/13 08:16:06;;;;;;;13.77;7.70;;;;;;;-2.54;82.92;100205.80;1704893;83;21197;-71
2022/12/13 08:18:33;;;;;;;;;;;;;;;-2.55;82.98;100201.91;1705920;83;21030;-72
2022/12/13 08:21:03;;;;;;;12.03;7.43;;;;;;;-2.52;83.12;100207.97;1696734;83;20209;-76
2022/12/13 08:23:32;;;;;;;14.60;7.87;;;;;;;-2.50;83.25;100209.25;1697356;83;20981;-75
2022/12/13 08:26:01;;;;;;;12.13;7.10;;;;;;;-2.53;83.07;100206.65;1699037;83;21116;-76
2022/12/13 08:28:30;;;;;;;12.47;6.63;;;;;;;-2.55;83.14;100209.21;1696856;83;21966;-74
2022/12/13 08:31:07;;;;;;;11.63;7.37;;;;;;;-2.53;83.32;100214.34;1697300;83;21053;-77
2022/12/13 08:33:34;;;;;;;13.80;7.73;;;;;;;-2.52;83.44;100210.53;1695094;83;21036;-73
2022/12/13 08:36:11;;;;;;;10.73;6.10;;;;;;;-2.50;83.55;100207.54;1698448;83;21037;-72
2022/12/13 08:38:38;;;;;;;10.80;7.07;;;;;;;-2.47;83.60;100206.72;1698752;83;21046;-73
2022/12/13 08:41:05;;;;;;;11.07;6.70;;;;;;;-2.48;83.44;100209.71;1701315;83;21028;-73
2022/12/13 08:43:32;;;;;;;14.10;6.87;;;;;;;-2.49;83.57;100213.56;1698752;83;21025;-72
2022/12/13 08:46:00;;;;;;;13.40;7.80;;;;;;;-2.49;83.71;100213.14;1700110;83;22139;-72
2022/12/13 08:48:27;;;;;;;18.30;7.90;;;;;;;-2.45;83.96;100214.03;1696667;83;21033;-78
2022/12/13 08:50:56;;;;;;;14.03;8.27;;;;;;;-2.44;83.79;100213.17;1695931;83;21443;-74
2022/12/13 08:53:23;;;;;;;14.97;8.30;;;;;;;-2.43;83.73;100214.91;1695932;83;21074;-73
2022/12/13 08:55:50;;;;;;;13.10;7.37;;;;;;;-2.41;83.89;100208.50;1699901;83;21034;-74
2022/12/13 08:58:17;;;;;;;14.23;7.83;;;;;;;-2.37;84.04;100220.12;1697156;83;20957;-73
2022/12/13 09:00:45;;;;;;;13.47;8.17;;;;;;;-2.35;83.88;100213.31;1698248;83;21052;-73
2022/12/13 09:03:12;;;;;;;17.00;10.63;;;;;;;-2.33;83.85;100215.48;1697967;83;21459;-75
2022/12/13 09:05:39;;;;;;;15.57;9.40;;;;;;;-2.31;83.90;100222.75;1699536;83;21835;-74
2022/12/13 09:08:06;;;;;;;16.30;9.00;;;;;;;-2.25;84.01;100220.69;1696109;83;20957;-74
2022/12/13 09:10:33;;;;;;;19.40;9.93;;;;;;;-2.22;83.78;100223.28;1696911;83;20934;-72
2022/12/13 09:13:00;;;;;;;18.83;9.77;;;;;;;-2.17;83.90;100223.34;1695989;83;21566;-74
2022/12/13 09:15:29;;;;;;;18.90;10.77;;;;;;;-2.12;83.86;100228.98;1695743;83;21037;-74
2022/12/13 09:17:56;;;;;;;15.43;9.07;;;;;;;-2.14;83.68;100229.38;1695947;83;21288;-73
2022/12/13 09:20:23;;;;;;;17.93;10.33;;;;;;;-2.08;83.93;100231.15;1706204;83;21033;-72
2022/12/13 09:22:50;;;;;;;18.63;9.80;;;;;;;-2.02;83.86;100232.09;1705435;83;21026;-72
2022/12/13 09:25:17;;;;;;;15.97;9.17;;;;;;;-2.00;83.74;100242.38;1702171;83;21041;-80
2022/12/13 09:27:47;;;;;;;19.40;10.80;;;;;;;-2.02;83.77;100245.37;1701228;83;21559;-74
2022/12/13 09:30:15;;;;;;;26.70;13.38;;;;;;;-2.03;83.70;100247.48;1698276;83;21179;-76
2022/12/13 09:32:48;;;;;;;41.33;19.77;;;;;;;-2.05;83.61;100234.64;1698258;83;20969;-77
2022/12/13 09:35:11;;;;;;;45.17;23.40;;;;;;;-2.04;83.60;100241.48;1695875;83;21081;-75
2022/12/13 09:37:38;;;;;;;25.83;13.57;;;;;;;-2.04;83.75;100237.63;1714425;83;21508;-75
2022/12/13 09:40:07;;;;;;;36.37;17.77;;;;;;;-1.98;83.84;100239.41;1700158;83;21598;-76
2022/12/13 09:42:34;;;;;;;43.37;19.03;;;;;;;-1.92;83.84;100234.76;1716712;83;21154;-76
2022/12/13 09:45:06;;;;;;;20.13;10.97;;;;;;;-1.89;83.79;100233.08;1699413;83;21049;-74
2022/12/13 09:47:39;;;;;;;16.00;9.47;;;;;;;-1.84;83.69;100227.56;1707712;83;21064;-75
2022/12/13 09:50:10;;;;;;;16.40;9.50;;;;;;;-1.86;83.26;100221.97;1708973;83;21038;-75
2022/12/13 09:52:43;;;;;;;16.63;9.43;;;;;;;-1.84;83.37;100220.29;1707890;82;21054;-77
2022/12/13 09:55:29;;;;;;;19.30;10.47;;;;;;;-1.80;83.21;100221.63;1708536;83;21144;-76
2022/12/13 09:57:59;;;;;;;15.97;9.20;;;;;;;-1.69;83.19;100228.17;1723462;83;21008;-78
2022/12/13 10:00:31;;;;;;;19.10;9.40;;;;;;;-1.52;83.14;100232.18;1710232;83;21033;-75
2022/12/13 10:02:59;;;;;;;18.07;9.03;;;;;;;-1.32;83.12;100228.50;1715104;82;21591;-77
2022/12/13 10:05:36;;;;;;;14.97;8.43;;;;;;;-1.05;83.10;100223.11;1709129;83;21033;-77
2022/12/13 10:08:18;;;;;;;15.63;7.60;;;;;;;-0.78;83.07;100224.59;1687200;84;21811;-77
2022/12/13 10:10:45;;;;;;;13.57;7.60;;;;;;;-0.61;82.34;100218.68;1663980;84;21504;-77
2022/12/13 10:13:40;;;;;;;12.57;7.30;;;;;;;-0.42;82.06;100223.50;1697526;83;21062;-77
2022/12/13 10:16:33;;;;;;;11.50;6.83;;;;;;;-0.20;81.85;100228.32;1693290;83;21102;-77
2022/12/13 10:19:36;;;;;;;11.60;6.57;;;;;;;-0.15;81.10;100226.19;1697478;83;21014;-78
2022/12/13 10:22:08;;;;;;;16.03;7.70;;;;;;;0.07;81.08;100220.69;1691710;84;21163;-78
2022/12/13 10:24:56;;;;;;;11.63;7.47;;;;;;;0.38;80.91;100226.76;1697115;83;21055;-77
2022/12/13 10:27:45;;;;;;;14.67;7.63;;;;;;;0.58;80.75;100220.36;1696454;84;21507;-78
2022/12/13 10:30:23;;;;;;;11.97;7.47;;;;;;;0.58;80.11;100222.94;1687974;84;21531;-78
2022/12/13 10:32:59;;;;;;;11.13;6.13;;;;;;;0.75;80.07;100222.06;1697364;83;21033;-78
2022/12/13 10:35:38;;;;;;;10.47;7.17;;;;;;;0.88;79.50;100213.03;1697619;84;21532;-78
2022/12/13 10:38:16;;;;;;;10.73;6.20;;;;;;;0.84;79.60;100214.34;1670808;85;21017;-83
2022/12/13 10:40:45;;;;;;;9.47;5.80;;;;;;;0.90;78.86;100210.45;1671591;85;20915;-78
2022/12/13 10:43:22;;;;;;;14.43;7.33;;;;;;;1.04;79.01;100200.98;1670996;85;21108;-78
2022/12/13 10:46:00;;;;;;;14.90;7.27;;;;;;;1.19;78.49;100206.56;1672061;85;21499;-78
2022/12/13 10:48:41;;;;;;;12.93;6.90;;;;;;;1.34;78.17;100194.89;1671717;85;21797;-78
2022/12/13 10:51:16;;;;;;;25.80;11.13;;;;;;;1.59;78.38;100192.67;1669976;85;21072;-78
2022/12/13 10:53:52;;;;;;;24.70;11.27;;;;;;;1.76;78.00;100193.45;1672204;85;21042;-78
2022/12/13 10:56:33;;;;;;;20.67;8.47;;;;;;;1.92;77.82;100198.98;1669829;85;21438;-78
2022/12/13 10:59:27;;;;;;;12.13;7.50;;;;;;;1.91;77.10;100195.98;1667568;86;21028;-78
2022/12/13 11:01:54;;;;;;;19.37;8.43;;;;;;;1.97;76.81;100193.80;1660744;86;21099;-78
2022/12/13 11:04:31;;;;;;;11.43;7.43;;;;;;;2.11;76.67;100199.74;1667494;86;21061;-79
2022/12/13 11:07:20;;;;;;;17.17;9.40;;;;;;;2.28;76.81;100196.20;1667611;86;21057;-78
2022/12/13 11:09:47;;;;;;;13.03;8.03;;;;;;;2.40;76.57;100189.20;1667952;86;22089;-78
2022/12/13 11:12:23;;;;;;;8.67;6.10;;;;;;;2.65;76.39;100191.60;1667581;86;21569;-76
2022/12/13 11:14:58;;;;;;;8.07;5.60;;;;;;;2.84;76.06;100183.25;1667827;86;21293;-77
2022/12/13 11:17:28;;;;;;;8.33;5.63;;;;;;;2.89;74.65;100191.40;1667830;86;21096;-77
2022/12/13 11:19:59;;;;;;;7.35;5.05;;;;;;;3.13;74.07;100188.14;1667706;86;21510;-77
2022/12/13 11:22:32;;;;;;;12.77;7.10;;;;;;;3.25;72.98;100177.67;1668009;86;21036;-77
2022/12/13 11:25:07;;;;;;;9.27;5.97;;;;;;;3.52;73.30;100187.28;1667610;86;20993;-77
2022/12/13 11:27:56;;;;;;;13.27;7.33;;;;;;;3.73;73.03;100180.55;1667960;86;21212;-77
2022/12/13 11:30:46;;;;;;;8.63;5.50;;;;;;;3.93;72.58;100181.59;1667744;86;21048;-77
2022/12/13 11:33:43;;;;;;;9.70;5.73;;;;;;;4.14;72.37;100183.48;1645101;86;21521;-77
2022/12/13 11:36:36;;;;;;;7.87;5.37;;;;;;;4.23;72.00;100180.75;1670065;84;21045;-75
2022/12/13 11:39:32;;;;;;;7.57;5.23;;;;;;;4.30;71.55;100181.09;1685327;84;21057;-78
2022/12/13 11:42:33;;;;;;;12.40;6.30;;;;;;;4.21;71.30;100179.49;1696926;84;21504;-77
2022/12/13 11:45:14;;;;;;;10.93;6.87;;;;;;;4.08;71.48;100170.16;1697580;84;21037;-75
2022/12/13 11:48:02;;;;;;;16.53;7.23;;;;;;;3.94;71.32;100183.77;1699128;84;22014;-76